Archival Weather

Aeroparque Jorge Newbery

Aeroparque Jorge Newbery, Argentina (SABE)

Report from: Saturday, May 14, 2022 6:00 PM -03
Current time: Sunday, June 26, 2022 2:14 PM -03

Current weather
Weather history
Weather forecast

Temperature17.0°C (62.6°F)
Dew point4.0°C (39.2°F)
Winds 4 kts (2.1 m/s, 4.6 mph) Vrb
Winds variableWinds variable from East-Southeast (120°) to West-Southwest (240°)
Clouds Sky clear
Altimeter30.09 in.Hg (1019 mB)
Relative humidity42 %
Density altitude163 ft. (50 m)
Remarks Ceiling and visibility OK
Corrected report
No significant changes expected in the next two hours
Flight conditions Visual Meteorological Conditions
Raw dataCOR SABE 142100Z 18004KT 240V120 CAVOK 17/04 Q1019 NOSIG
An error has occurred. This application may no longer respond until reloaded. Reload 🗙